createdAt,value
2018-07-28T00:00:10.503Z,97482.67
2018-07-28T00:02:39.757Z,97477.44
2018-07-28T00:05:09.645Z,97480.55
2018-07-28T00:07:38.946Z,97482.42
2018-07-28T00:10:11.824Z,97480.15
2018-07-28T00:12:40.967Z,97471.19
2018-07-28T00:15:11.416Z,97472.88
2018-07-28T00:17:41.286Z,97470.94
2018-07-28T00:20:11.731Z,97470.46
2018-07-28T00:22:40.845Z,97457.56
2018-07-28T00:25:11.747Z,97462.26
2018-07-28T00:27:41.091Z,97459.38
2018-07-28T00:30:12.263Z,97463.77
2018-07-28T00:32:41.463Z,97462.23
2018-07-28T00:35:10.498Z,97465.77
2018-07-28T00:37:39.640Z,97470.42
2018-07-28T00:40:09.164Z,97460.61
2018-07-28T00:42:38.282Z,97460.84
2018-07-28T00:45:07.834Z,97463.42
2018-07-28T00:47:36.998Z,97461.72
2018-07-28T00:50:07.085Z,97460.38
2018-07-28T00:52:36.208Z,97452.37
2018-07-28T00:55:05.546Z,97447.64
2018-07-28T00:57:34.750Z,97444.03
2018-07-28T01:00:03.995Z,97438.73
2018-07-28T01:02:32.993Z,97438.48
2018-07-28T01:05:02.169Z,97440.56
2018-07-28T01:07:30.955Z,97438.09
2018-07-28T01:10:00.108Z,97438.63
2018-07-28T01:15:05.303Z,97429.30
2018-07-28T01:17:34.442Z,97429.67
2018-07-28T01:20:03.284Z,97429.20
2018-07-28T01:22:32.417Z,97421.62
2018-07-28T01:25:01.680Z,97423.73
2018-07-28T01:27:30.533Z,97409.53
2018-07-28T01:29:59.392Z,97408.27
2018-07-28T01:32:28.382Z,97418.28
2018-07-28T01:34:57.510Z,97413.79
2018-07-28T01:37:26.677Z,97412.34
2018-07-28T01:39:55.990Z,97410.16
2018-07-28T01:42:25.099Z,97413.86
2018-07-28T01:44:54.115Z,97415.67
2018-07-28T01:47:23.035Z,97408.00
2018-07-28T01:49:52.324Z,97411.14
2018-07-28T01:52:21.578Z,97414.06
2018-07-28T01:54:50.832Z,97408.82
2018-07-28T01:57:20.018Z,97410.06
2018-07-28T01:59:48.926Z,97410.89
2018-07-28T02:02:18.112Z,97408.13
2018-07-28T02:04:47.462Z,97409.34
2018-07-28T02:07:16.549Z,97408.47
2018-07-28T02:09:45.741Z,97400.87
2018-07-28T02:12:14.738Z,97403.16
2018-07-28T02:14:43.978Z,97398.06
2018-07-28T02:17:12.977Z,97403.63
2018-07-28T02:19:42.068Z,97401.00
2018-07-28T02:22:11.056Z,97397.59
2018-07-28T02:24:40.150Z,97399.02
2018-07-28T02:27:09.211Z,97400.72
2018-07-28T02:29:38.079Z,97403.14
2018-07-28T02:32:07.325Z,97406.06
2018-07-28T02:34:36.175Z,97403.41
2018-07-28T02:37:05.252Z,97408.14
2018-07-28T02:39:34.346Z,97409.00
2018-07-28T02:42:03.619Z,97409.47
2018-07-28T02:44:32.801Z,97411.28
2018-07-28T02:47:02.057Z,97405.73
2018-07-28T02:49:31.213Z,97406.81
2018-07-28T02:52:00.411Z,97401.61
2018-07-28T02:54:29.299Z,97398.25
2018-07-28T02:56:58.275Z,97399.48
2018-07-28T02:59:27.393Z,97391.94
2018-07-28T03:01:56.187Z,97386.73
2018-07-28T03:04:25.286Z,97390.86
2018-07-28T03:06:54.434Z,97398.38
2018-07-28T03:09:23.678Z,97395.97
2018-07-28T03:11:52.641Z,97392.80
2018-07-28T03:14:21.586Z,97395.46
2018-07-28T03:16:50.780Z,97397.17
2018-07-28T03:19:19.991Z,97397.30
2018-07-28T03:21:49.071Z,97408.44
2018-07-28T03:24:18.343Z,97404.91
2018-07-28T03:26:47.607Z,97409.77
2018-07-28T03:29:16.687Z,97416.18
2018-07-28T03:31:45.600Z,97414.97
2018-07-28T03:34:14.521Z,97414.59
2018-07-28T03:36:43.466Z,97413.89
2018-07-28T03:39:12.865Z,97419.70
2018-07-28T03:41:42.165Z,97416.78
2018-07-28T03:44:10.940Z,97422.94
2018-07-28T03:46:40.191Z,97424.66
2018-07-28T03:49:09.397Z,97423.80
2018-07-28T03:51:38.353Z,97427.53
2018-07-28T03:54:07.391Z,97425.22
2018-07-28T03:56:36.368Z,97432.27
2018-07-28T03:59:05.510Z,97434.20
2018-07-28T04:01:34.755Z,97438.33
2018-07-28T04:04:03.567Z,97444.73
2018-07-28T04:06:32.674Z,97448.59
2018-07-28T04:09:01.659Z,97445.34
2018-07-28T04:11:30.622Z,97438.29
2018-07-28T04:13:59.687Z,97443.02
2018-07-28T04:16:28.926Z,97437.47
2018-07-28T04:18:58.175Z,97443.00
2018-07-28T04:21:27.438Z,97435.22
2018-07-28T04:23:56.475Z,97439.87
2018-07-28T04:26:25.525Z,97436.34
2018-07-28T04:28:54.557Z,97436.34
2018-07-28T04:31:23.750Z,97441.04
2018-07-28T04:33:52.740Z,97446.08
2018-07-28T04:36:21.979Z,97439.80
2018-07-28T04:38:51.036Z,97433.23
2018-07-28T04:41:20.168Z,97442.58
2018-07-28T04:43:49.215Z,97439.66
2018-07-28T04:46:18.470Z,97446.79
2018-07-28T04:48:47.638Z,97443.38
2018-07-28T04:51:16.688Z,97447.35
2018-07-28T04:53:45.439Z,97452.05
2018-07-28T04:56:14.665Z,97446.13
2018-07-28T04:58:43.493Z,97447.19
2018-07-28T05:01:12.194Z,97444.44
2018-07-28T05:03:41.255Z,97452.42
2018-07-28T05:06:10.346Z,97446.22
2018-07-28T05:08:39.129Z,97438.81
2018-07-28T05:11:08.330Z,97445.90
2018-07-28T05:13:37.607Z,97443.99
2018-07-28T05:16:06.350Z,97443.19
2018-07-28T05:18:35.168Z,97445.77
2018-07-28T05:21:04.156Z,97452.31
2018-07-28T05:23:33.063Z,97449.02
2018-07-28T05:26:02.223Z,97448.53
2018-07-28T05:28:31.425Z,97457.63
2018-07-28T05:31:00.802Z,97451.87
2018-07-28T05:33:29.894Z,97458.05
2018-07-28T05:35:58.970Z,97456.16
2018-07-28T05:38:28.221Z,97458.79
2018-07-28T05:40:57.467Z,97455.29
2018-07-28T05:43:26.663Z,97454.84
2018-07-28T05:45:55.402Z,97457.70
2018-07-28T05:48:24.690Z,97461.38
2018-07-28T05:50:54.043Z,97464.86
2018-07-28T05:53:22.990Z,97470.99
2018-07-28T05:55:52.139Z,97467.52
2018-07-28T05:58:21.208Z,97464.56
2018-07-28T06:00:50.336Z,97465.60
2018-07-28T06:03:19.438Z,97462.73
2018-07-28T06:05:48.862Z,97464.19
2018-07-28T06:08:17.879Z,97464.37
2018-07-28T06:10:46.858Z,97462.94
2018-07-28T06:13:16.055Z,97463.13
2018-07-28T06:15:45.194Z,97464.84
2018-07-28T06:18:14.302Z,97464.47
2018-07-28T06:20:43.155Z,97460.05
2018-07-28T06:23:11.987Z,97462.09
2018-07-28T06:25:40.898Z,97461.69
2018-07-28T06:28:10.143Z,97459.34
2018-07-28T06:30:39.391Z,97461.69
2018-07-28T06:33:08.599Z,97461.11
2018-07-28T06:35:37.810Z,97460.23
2018-07-28T06:38:07.095Z,97463.14
2018-07-28T06:40:36.279Z,97460.39
2018-07-28T06:43:05.122Z,97455.78
2018-07-28T06:45:34.133Z,97456.41
2018-07-28T06:48:03.440Z,97454.41
2018-07-28T06:50:32.814Z,97450.46
2018-07-28T06:53:02.135Z,97452.97
2018-07-28T06:55:31.256Z,97449.38
2018-07-28T06:58:00.423Z,97452.06
2018-07-28T07:00:29.639Z,97446.71
2018-07-28T07:02:58.899Z,97440.37
2018-07-28T07:05:28.339Z,97435.27
2018-07-28T07:07:57.547Z,97436.70
2018-07-28T07:10:26.515Z,97430.45
2018-07-28T07:12:55.579Z,97433.69
2018-07-28T07:15:24.529Z,97425.20
2018-07-28T07:17:53.685Z,97425.25
2018-07-28T07:20:22.628Z,97434.45
2018-07-28T07:22:51.510Z,97429.97
2018-07-28T07:25:20.650Z,97430.95
2018-07-28T07:27:49.894Z,97429.65
2018-07-28T07:30:19.027Z,97428.18
2018-07-28T07:32:47.972Z,97426.80
2018-07-28T07:35:17.199Z,97427.00
2018-07-28T07:37:46.329Z,97428.95
2018-07-28T07:40:15.430Z,97428.72
2018-07-28T07:42:44.309Z,97426.36
2018-07-28T07:45:13.312Z,97424.81
2018-07-28T07:47:42.451Z,97423.72
2018-07-28T07:50:11.603Z,97431.55
2018-07-28T07:52:40.826Z,97436.27
2018-07-28T07:55:09.955Z,97434.64
2018-07-28T07:57:38.754Z,97434.69
2018-07-28T08:00:08.449Z,97433.34
2018-07-28T08:02:37.423Z,97441.54
2018-07-28T08:05:06.570Z,97440.37
2018-07-28T08:07:35.808Z,97434.53
2018-07-28T08:10:05.375Z,97431.17
2018-07-28T08:12:34.661Z,97432.01
2018-07-28T08:15:03.814Z,97434.72
2018-07-28T08:17:32.775Z,97434.55
2018-07-28T08:20:02.847Z,97429.50
2018-07-28T08:22:31.992Z,97427.94
2018-07-28T08:25:01.366Z,97423.80
2018-07-28T08:27:30.822Z,97427.03
2018-07-28T08:29:59.995Z,97431.77
2018-07-28T08:32:29.229Z,97435.15
2018-07-28T08:34:58.333Z,97428.08
2018-07-28T08:37:27.353Z,97429.75
2018-07-28T08:39:56.197Z,97426.06
2018-07-28T08:42:25.338Z,97428.43
2018-07-28T08:44:54.457Z,97430.80
2018-07-28T08:47:23.542Z,97427.10
2018-07-28T08:49:52.586Z,97425.73
2018-07-28T08:52:21.521Z,97428.77
2018-07-28T08:54:50.735Z,97420.84
2018-07-28T08:57:19.754Z,97418.15
2018-07-28T08:59:48.995Z,97419.33
2018-07-28T09:02:18.071Z,97413.93
2018-07-28T09:04:47.319Z,97420.35
2018-07-28T09:07:16.490Z,97414.30
2018-07-28T09:09:45.526Z,97404.52
2018-07-28T09:12:14.573Z,97405.36
2018-07-28T09:14:43.579Z,97402.95
2018-07-28T09:17:12.885Z,97396.53
2018-07-28T09:19:42.152Z,97394.84
2018-07-28T09:22:11.477Z,97388.67
2018-07-28T09:24:40.683Z,97384.80
2018-07-28T09:27:09.759Z,97386.76
2018-07-28T09:29:38.991Z,97391.64
2018-07-28T09:32:08.382Z,97392.30
2018-07-28T09:34:37.549Z,97380.80
2018-07-28T09:37:06.995Z,97377.95
2018-07-28T09:39:36.240Z,97380.59
2018-07-28T09:42:05.550Z,97384.84
2018-07-28T09:44:34.739Z,97377.89
2018-07-28T09:47:03.895Z,97375.75
2018-07-28T09:49:33.089Z,97375.95
2018-07-28T09:52:01.890Z,97366.26
2018-07-28T09:54:31.003Z,97367.53
2018-07-28T09:56:59.958Z,97367.28
2018-07-28T09:59:29.633Z,97363.97
2018-07-28T10:01:58.539Z,97365.69
2018-07-28T10:04:27.659Z,97365.60
2018-07-28T10:06:56.496Z,97367.81
2018-07-28T10:09:25.790Z,97364.11
2018-07-28T10:11:54.890Z,97367.69
2018-07-28T10:14:23.895Z,97362.21
2018-07-28T10:16:53.063Z,97365.92
2018-07-28T10:19:22.164Z,97364.98
2018-07-28T10:21:51.517Z,97360.20
2018-07-28T10:24:20.506Z,97351.21
2018-07-28T10:26:49.622Z,97347.06
2018-07-28T10:29:18.625Z,97349.47
2018-07-28T10:31:47.819Z,97343.21
2018-07-28T10:34:16.931Z,97340.70
2018-07-28T10:36:46.118Z,97344.23
2018-07-28T10:39:15.429Z,97335.14
2018-07-28T10:41:44.326Z,97333.63
2018-07-28T10:44:14.416Z,97326.77
2018-07-28T10:46:43.462Z,97329.33
2018-07-28T10:49:12.505Z,97324.74
2018-07-28T10:51:41.843Z,97319.05
2018-07-28T10:54:10.755Z,97326.66
2018-07-28T10:56:39.999Z,97324.64
2018-07-28T10:59:09.331Z,97323.25
2018-07-28T11:01:38.620Z,97323.89
2018-07-28T11:04:07.714Z,97322.09
2018-07-28T11:06:36.798Z,97335.64
2018-07-28T11:09:08.169Z,97326.24
2018-07-28T11:11:37.238Z,97332.42
2018-07-28T11:14:06.640Z,97325.06
2018-07-28T11:16:35.922Z,97330.06
2018-07-28T11:19:05.056Z,97334.37
2018-07-28T11:21:34.090Z,97327.70
2018-07-28T11:24:03.747Z,97312.85
2018-07-28T11:26:33.137Z,97319.02
2018-07-28T11:29:02.235Z,97321.39
2018-07-28T11:31:42.034Z,97314.33
2018-07-28T11:34:21.629Z,97321.43
2018-07-28T11:37:01.607Z,97320.86
2018-07-28T11:39:41.551Z,97324.09
2018-07-28T11:42:21.704Z,97310.47
2018-07-28T11:45:06.162Z,97309.87
2018-07-28T11:47:35.307Z,97307.81
2018-07-28T11:50:04.613Z,97307.45
2018-07-28T11:52:33.931Z,97303.41
2018-07-28T11:55:03.102Z,97298.80
2018-07-28T11:57:32.347Z,97289.95
2018-07-28T12:00:01.600Z,97285.88
2018-07-28T12:02:30.886Z,97272.53
2018-07-28T12:05:00.029Z,97277.72
2018-07-28T12:07:29.235Z,97277.08
2018-07-28T12:09:58.363Z,97274.80
2018-07-28T12:12:27.444Z,97265.02
2018-07-28T12:14:56.517Z,97272.66
2018-07-28T12:17:25.737Z,97257.84
2018-07-28T12:19:54.528Z,97258.81
2018-07-28T12:22:23.754Z,97259.57
2018-07-28T12:24:53.015Z,97267.48
2018-07-28T12:27:22.142Z,97257.13
2018-07-28T12:29:51.256Z,97258.48
2018-07-28T12:32:20.315Z,97255.00
2018-07-28T12:34:49.629Z,97253.11
2018-07-28T12:37:18.910Z,97249.21
2018-07-28T12:39:48.147Z,97247.45
2018-07-28T12:42:16.905Z,97247.95
2018-07-28T12:44:46.185Z,97255.03
2018-07-28T12:47:15.322Z,97253.23
2018-07-28T12:49:44.539Z,97260.88
2018-07-28T12:52:13.556Z,97260.29
2018-07-28T12:54:42.852Z,97253.75
2018-07-28T12:57:11.847Z,97263.44
2018-07-28T12:59:40.880Z,97267.31
2018-07-28T13:02:10.090Z,97269.92
2018-07-28T13:04:38.918Z,97270.52
2018-07-28T13:07:07.981Z,97273.20
2018-07-28T13:09:37.178Z,97277.75
2018-07-28T13:12:06.399Z,97273.90
2018-07-28T13:14:35.347Z,97285.33
2018-07-28T13:17:04.631Z,97281.02
2018-07-28T13:19:33.570Z,97275.84
2018-07-28T13:22:02.715Z,97274.36
2018-07-28T13:24:31.907Z,97271.30
2018-07-28T13:27:00.862Z,97272.87
2018-07-28T13:29:29.871Z,97270.80
2018-07-28T13:31:59.004Z,97271.50
2018-07-28T13:34:28.022Z,97276.15
2018-07-28T13:36:57.131Z,97263.61
2018-07-28T13:39:26.371Z,97269.62
2018-07-28T13:41:55.794Z,97273.47
2018-07-28T13:44:24.987Z,97269.03
2018-07-28T13:46:54.275Z,97262.15
2018-07-28T13:49:23.367Z,97265.73
2018-07-28T13:51:52.399Z,97262.47
2018-07-28T13:54:21.594Z,97261.20
2018-07-28T13:56:50.686Z,97264.19
2018-07-28T13:59:19.647Z,97269.07
2018-07-28T14:01:48.903Z,97273.61
2018-07-28T14:04:18.122Z,97273.27
2018-07-28T14:06:47.300Z,97274.45
2018-07-28T14:09:16.184Z,97283.38
2018-07-28T14:11:45.291Z,97275.88
2018-07-28T14:14:14.367Z,97282.36
2018-07-28T14:16:43.291Z,97279.08
2018-07-28T14:19:12.406Z,97278.84
2018-07-28T14:21:41.442Z,97284.57
2018-07-28T14:24:10.249Z,97276.96
2018-07-28T14:26:39.180Z,97277.67
2018-07-28T14:29:08.264Z,97276.96
2018-07-28T14:31:37.306Z,97280.41
2018-07-28T14:34:06.813Z,97274.03
2018-07-28T14:36:35.906Z,97270.89
2018-07-28T14:39:06.734Z,97266.41
2018-07-28T14:41:36.092Z,97256.38
2018-07-28T14:44:05.234Z,97249.97
2018-07-28T14:46:34.429Z,97248.89
2018-07-28T14:49:03.422Z,97252.27
2018-07-28T14:51:32.722Z,97260.53
2018-07-28T14:54:02.006Z,97265.12
2018-07-28T14:56:31.297Z,97267.38
2018-07-28T14:59:00.578Z,97264.02
2018-07-28T15:01:30.050Z,97261.53
2018-07-28T15:03:59.255Z,97265.09
2018-07-28T15:06:28.418Z,97258.16
2018-07-28T15:08:57.520Z,97249.56
2018-07-28T15:11:26.247Z,97255.11
2018-07-28T15:13:55.541Z,97255.98
2018-07-28T15:16:24.647Z,97253.23
2018-07-28T15:18:53.990Z,97262.64
2018-07-28T15:21:23.130Z,97257.05
2018-07-28T15:23:51.996Z,97269.81
2018-07-28T15:26:20.813Z,97266.97
2018-07-28T15:28:51.685Z,97262.30
2018-07-28T15:31:21.558Z,97271.77
2018-07-28T15:33:50.773Z,97271.08
2018-07-28T15:36:19.932Z,97274.47
2018-07-28T15:38:49.160Z,97275.09
2018-07-28T15:41:18.271Z,97274.88
2018-07-28T15:43:47.330Z,97277.36
2018-07-28T15:46:16.447Z,97270.69
2018-07-28T15:48:45.410Z,97279.95
2018-07-28T15:51:14.358Z,97289.53
2018-07-28T15:53:43.647Z,97286.02
2018-07-28T15:56:12.847Z,97289.53
2018-07-28T15:58:41.606Z,97287.73
2018-07-28T16:01:10.747Z,97287.37
2018-07-28T16:03:40.396Z,97288.08
2018-07-28T16:06:09.477Z,97283.20
2018-07-28T16:08:38.442Z,97281.80
2018-07-28T16:11:07.542Z,97278.11
2018-07-28T16:13:36.434Z,97282.31
2018-07-28T16:16:05.754Z,97293.97
2018-07-28T16:18:34.816Z,97286.16
2018-07-28T16:21:04.042Z,97285.67
2018-07-28T16:23:32.848Z,97285.24
2018-07-28T16:26:01.987Z,97283.39
2018-07-28T16:28:30.928Z,97289.84
2018-07-28T16:31:00.019Z,97288.19
2018-07-28T16:33:29.007Z,97290.33
2018-07-28T16:35:58.334Z,97293.72
2018-07-28T16:38:27.094Z,97297.95
2018-07-28T16:40:55.921Z,97303.80
2018-07-28T16:43:24.842Z,97299.52
2018-07-28T16:45:54.766Z,97298.27
2018-07-28T16:48:24.398Z,97301.67
2018-07-28T16:50:53.922Z,97297.83
2018-07-28T16:53:23.095Z,97291.79
2018-07-28T16:55:52.559Z,97287.75
2018-07-28T16:58:22.260Z,97289.59
2018-07-28T17:00:51.775Z,97295.66
2018-07-28T17:03:20.793Z,97291.98
2018-07-28T17:05:50.034Z,97303.09
2018-07-28T17:08:19.153Z,97308.47
2018-07-28T17:10:48.327Z,97310.50
2018-07-28T17:13:17.440Z,97309.66
2018-07-28T17:15:47.247Z,97310.16
2018-07-28T17:18:16.239Z,97309.33
2018-07-28T17:20:45.497Z,97316.40
2018-07-28T17:23:14.488Z,97321.23
2018-07-28T17:25:43.462Z,97326.96
2018-07-28T17:28:12.706Z,97327.27
2018-07-28T17:30:42.073Z,97326.93
2018-07-28T17:33:11.047Z,97341.07
2018-07-28T17:35:40.202Z,97338.02
2018-07-28T17:38:09.547Z,97333.29
2018-07-28T17:40:38.441Z,97335.27
2018-07-28T17:43:07.439Z,97337.28
2018-07-28T17:45:36.678Z,97339.42
2018-07-28T17:48:05.971Z,97342.72
2018-07-28T17:50:35.114Z,97344.04
2018-07-28T17:53:04.467Z,97350.69
2018-07-28T17:55:33.707Z,97356.02
2018-07-28T17:58:02.990Z,97354.61
2018-07-28T18:00:31.818Z,97352.58
2018-07-28T18:03:01.154Z,97353.86
2018-07-28T18:05:30.269Z,97357.17
2018-07-28T18:07:59.439Z,97355.36
2018-07-28T18:10:28.562Z,97356.68
2018-07-28T18:12:57.630Z,97356.52
2018-07-28T18:15:26.420Z,97359.77
2018-07-28T18:17:55.447Z,97359.56
2018-07-28T18:20:24.559Z,97359.98
2018-07-28T18:22:53.645Z,97362.36
2018-07-28T18:25:23.180Z,97365.05
2018-07-28T18:27:52.350Z,97371.35
2018-07-28T18:30:21.603Z,97378.02
2018-07-28T18:32:50.751Z,97381.47
2018-07-28T18:35:19.994Z,97392.44
2018-07-28T18:37:48.927Z,97391.55
2018-07-28T18:40:17.884Z,97390.48
2018-07-28T18:42:47.008Z,97391.20
2018-07-28T18:45:16.200Z,97389.63
2018-07-28T18:47:45.184Z,97393.66
2018-07-28T18:50:14.258Z,97403.02
2018-07-28T18:52:43.109Z,97413.06
2018-07-28T18:55:12.300Z,97435.03
2018-07-28T18:57:41.530Z,97449.66
2018-07-28T19:00:10.800Z,97455.47
2018-07-28T19:02:40.042Z,97464.27
2018-07-28T19:05:09.386Z,97464.97
2018-07-28T19:07:38.159Z,97466.16
2018-07-28T19:10:07.079Z,97468.30
2018-07-28T19:12:40.930Z,97466.47
2018-07-28T19:15:10.086Z,97462.16
2018-07-28T19:17:44.374Z,97458.22
2018-07-28T19:20:13.598Z,97462.37
2018-07-28T19:22:47.929Z,97460.14
2018-07-28T19:25:17.230Z,97469.30
2018-07-28T19:27:51.535Z,97476.05
2018-07-28T19:30:20.998Z,97485.27
2018-07-28T19:32:50.029Z,97486.30
2018-07-28T19:35:18.940Z,97488.71
2018-07-28T19:37:48.082Z,97485.48
2018-07-28T19:40:17.227Z,97483.99
2018-07-28T19:42:51.827Z,97484.14
2018-07-28T19:45:21.403Z,97485.64
2018-07-28T19:47:50.598Z,97489.88
2018-07-28T19:50:19.840Z,97490.70
2018-07-28T19:52:50.067Z,97488.48
2018-07-28T19:55:19.275Z,97490.52
2018-07-28T19:57:48.070Z,97492.98
2018-07-28T20:00:17.109Z,97500.06
2018-07-28T20:02:46.296Z,97497.78
2018-07-28T20:05:15.614Z,97509.31
2018-07-28T20:07:44.793Z,97510.95
2018-07-28T20:10:13.961Z,97509.69
2018-07-28T20:12:43.187Z,97506.55
2018-07-28T20:15:12.113Z,97503.21
2018-07-28T20:17:41.388Z,97503.79
2018-07-28T20:20:12.590Z,97507.99
2018-07-28T20:22:41.503Z,97512.95
2018-07-28T20:25:10.648Z,97515.41
2018-07-28T20:27:39.826Z,97528.09
2018-07-28T20:30:09.145Z,97521.28
2018-07-28T20:32:38.322Z,97514.25
2018-07-28T20:35:07.219Z,97525.29
2018-07-28T20:37:36.551Z,97527.89
2018-07-28T20:40:05.607Z,97544.84
2018-07-28T20:42:34.766Z,97548.84
2018-07-28T20:45:04.103Z,97549.16
2018-07-28T20:47:33.245Z,97540.38
2018-07-28T20:50:01.940Z,97552.48
2018-07-28T20:52:30.897Z,97579.77
2018-07-28T20:55:00.036Z,97596.23
2018-07-28T20:57:28.919Z,97610.19
2018-07-28T20:59:57.826Z,97611.87
2018-07-28T21:02:26.922Z,97607.49
2018-07-28T21:04:55.993Z,97605.05
2018-07-28T21:07:24.986Z,97594.47
2018-07-28T21:09:54.224Z,97576.38
2018-07-28T21:12:23.372Z,97560.05
2018-07-28T21:14:52.543Z,97553.89
2018-07-28T21:17:21.678Z,97556.83
2018-07-28T21:19:50.874Z,97556.70
2018-07-28T21:22:20.129Z,97555.97
2018-07-28T21:24:48.990Z,97555.02
2018-07-28T21:27:17.958Z,97549.76
2018-07-28T21:29:46.929Z,97547.23
2018-07-28T21:32:16.141Z,97540.20
2018-07-28T21:34:45.031Z,97530.63
2018-07-28T21:37:14.242Z,97523.73
2018-07-28T21:39:42.973Z,97518.86
2018-07-28T21:42:11.791Z,97496.19
2018-07-28T21:44:40.816Z,97491.34
2018-07-28T21:47:09.994Z,97485.80
2018-07-28T21:49:39.127Z,97483.86
2018-07-28T21:52:08.389Z,97482.85
2018-07-28T21:54:37.615Z,97478.26
2018-07-28T21:57:06.877Z,97477.78
2018-07-28T21:59:36.244Z,97475.09
2018-07-28T22:02:05.299Z,97472.34
2018-07-28T22:04:36.522Z,97478.89
2018-07-28T22:07:05.556Z,97479.52
2018-07-28T22:09:34.731Z,97479.42
2018-07-28T22:12:03.939Z,97470.22
2018-07-28T22:14:32.923Z,97482.34
2018-07-28T22:17:02.178Z,97492.73
2018-07-28T22:19:31.534Z,97505.57
2018-07-28T22:22:00.425Z,97510.44
2018-07-28T22:24:30.925Z,97512.60
2018-07-28T22:27:00.193Z,97513.68
2018-07-28T22:29:29.116Z,97519.14
2018-07-28T22:31:58.387Z,97520.34
2018-07-28T22:34:27.465Z,97526.64
2018-07-28T22:36:56.546Z,97523.95
2018-07-28T22:39:25.570Z,97531.35
2018-07-28T22:41:54.462Z,97526.14
2018-07-28T22:44:23.811Z,97519.20
2018-07-28T22:46:52.784Z,97509.61
2018-07-28T22:49:21.902Z,97508.87
2018-07-28T22:51:50.968Z,97508.73
2018-07-28T22:54:20.274Z,97514.08
2018-07-28T22:56:49.535Z,97517.35
2018-07-28T22:59:18.847Z,97516.47
2018-07-28T23:01:48.072Z,97516.27
2018-07-28T23:04:16.962Z,97515.79
2018-07-28T23:06:46.158Z,97519.48
2018-07-28T23:09:15.285Z,97528.34
2018-07-28T23:11:44.427Z,97532.77
2018-07-28T23:14:13.731Z,97529.47
2018-07-28T23:16:43.234Z,97531.87
2018-07-28T23:19:12.119Z,97529.69
2018-07-28T23:21:41.416Z,97530.80
2018-07-28T23:24:10.442Z,97524.34
2018-07-28T23:26:39.780Z,97526.20
2018-07-28T23:29:09.018Z,97513.98
2018-07-28T23:31:38.011Z,97509.26
2018-07-28T23:34:07.075Z,97508.67
2018-07-28T23:36:36.364Z,97496.19
2018-07-28T23:39:07.720Z,97481.73
2018-07-28T23:41:36.793Z,97482.85
2018-07-28T23:44:05.558Z,97479.20
2018-07-28T23:46:34.591Z,97472.03
2018-07-28T23:49:03.534Z,97465.25
2018-07-28T23:51:32.776Z,97458.56
2018-07-28T23:54:01.727Z,97456.63
2018-07-28T23:56:30.759Z,97448.76
2018-07-28T23:58:59.656Z,97452.28
